CHIUDI BANNER

Seguici su twitter Seguici su facebook
LIVE Streaming HD
Get Adobe Flash player
Dati meteo stazione (refresh automatico ogni minuto)
Latina VENTO: VELOCITÀ   PIOGGIA: QTA GIORNO TEMPERATURA: ATTUALE
SPOT: Latina lido
(Hotel Tirreno) Posizione su Googlemap: Latitudine 41.41 Longitudine 12.84
RAFFICA MASSIMA: QTA MENSILE: MASSIMA:
VELOCITÀ MEDIA: QTA ANNUALE: MINIMA:
DIREZIONE: UMIDITÀ: WIND CHILL:
TIPO: DEW POINT:
BEAUFORT: PRESSIONE:
I nostri partner
Latina nelle ultime ore
Applica filtri in visualizzazione Intervallo delle letture nelle ultime

Ora Direzione Vento Velocita' Vento Media Vento Raffica Max. Temperatura Wind Chill Pioggia Pressione
11:25:55217 °(SW)3 Kts2.1 Kts3.8 Kts24.6 °C23.5 °C0 mm1015.4 Hpa
11:20:36205 °(SSW)1.2 Kts2.1 Kts3.8 Kts24.2 °C23.2 °C0 mm1015.4 Hpa
11:15:20192 °(SSW)3.8 Kts2.1 Kts3.8 Kts24.2 °C23.2 °C0 mm1015.4 Hpa
11:10:59204 °(SSW)2.1 Kts2.1 Kts3 Kts24.2 °C23.2 °C0 mm1015.2 Hpa
11:05:41203 °(SSW)1.2 Kts2.1 Kts3 Kts24.4 °C23.2 °C0 mm1015.2 Hpa
11:00:13197 °(SSW)2.1 Kts1.2 Kts3 Kts24.2 °C23.5 °C0 mm1015.3 Hpa
10:55:36184 °(S)1.2 Kts0.3 Kts3 Kts24.2 °C23.7 °C0 mm1015.2 Hpa
10:50:14184 °(S)0.3 Kts1.2 Kts3 Kts24.1 °C23.3 °C0 mm1015.2 Hpa
10:46:09183 °(S)0 Kts2.1 Kts3 Kts24 °C22.7 °C0 mm1015.2 Hpa
10:40:14183 °(S)3 Kts2.1 Kts3 Kts24.1 °C23 °C0 mm1015.3 Hpa
10:34:53182 °(S)2.1 Kts1.2 Kts3 Kts24.1 °C23.2 °C0 mm1015.2 Hpa
10:30:37180 °(S)3 Kts0 Kts3 Kts24 °C24 °C0 mm1015.2 Hpa
10:25:16151 °(SSE)0 Kts0 Kts3 Kts23.7 °C23.7 °C0 mm1015.2 Hpa
10:21:04145 °(SE)0 Kts0 Kts3 Kts23.7 °C23.7 °C0 mm1015.3 Hpa
10:15:48124 °(SE)0 Kts0 Kts3 Kts23.6 °C23.6 °C0 mm1015.3 Hpa
10:10:3068 °(ENE)0 Kts0 Kts3 Kts23.6 °C23.6 °C0 mm1015.5 Hpa
10:05:1264 °(ENE)0 Kts0 Kts3 Kts23.7 °C23.7 °C0 mm1015.5 Hpa
10:00:2363 °(ENE)0 Kts0 Kts3 Kts23.7 °C23.7 °C0 mm1015.5 Hpa
09:56:0560 °(ENE)0 Kts0 Kts3 Kts23.7 °C23.7 °C0 mm1015.5 Hpa
09:50:4358 °(ENE)0 Kts0 Kts3 Kts23.2 °C23.2 °C0 mm1015.5 Hpa
09:45:2758 °(ENE)0 Kts0 Kts3 Kts23.2 °C23.2 °C0 mm1015.4 Hpa
09:40:5858 °(ENE)0 Kts0 Kts3 Kts23.2 °C23.2 °C0 mm1015.2 Hpa
09:35:4157 °(ENE)0 Kts0 Kts3 Kts22.9 °C22.9 °C0 mm1015.2 Hpa
09:30:1257 °(ENE)0.3 Kts0.3 Kts3 Kts22.6 °C22 °C0 mm1015 Hpa